Time;durP1;ratioP1;P1;durP2;ratioP2;P2;SDS_P1;SDS_P2;PMS_P1;PMS_P2;Temp;Humidity;BMP_temperature;BMP_pressure;BME280_temperature;BME280_humidity;BME280_pressure;Samples;Min_cycle;Max_cycle;Signal;HPM_P1;HPM_P2
2023/09/19 00:00:46;;;;;;;;;;;20.90;72.80;;;;;;5097448;28;19924;-67
2023/09/19 00:03:16;;;;;;;;;;;21.00;72.90;;;;;;5097159;28;19951;-67
2023/09/19 00:05:44;;;;;;;;;;;20.90;72.80;;;;;;5131723;27;19923;-66
2023/09/19 00:08:09;;;;;;;;;;;20.90;72.80;;;;;;5097098;28;19970;-72
2023/09/19 00:10:35;;;;;;;;;;;20.90;72.70;;;;;;5097447;28;19959;-67
2023/09/19 00:13:04;;;;;;;;;;;20.90;72.70;;;;;;5097005;28;19928;-67
2023/09/19 00:15:29;;;;;;;;;;;21.00;72.80;;;;;;5097324;28;20366;-66
2023/09/19 00:17:55;;;;;;;;;;;20.90;72.70;;;;;;5097126;28;20011;-67
2023/09/19 00:20:22;;;;;;;;;;;20.90;72.70;;;;;;5115128;28;20405;-66
2023/09/19 00:22:49;;;;;;;;;;;20.90;72.70;;;;;;5115387;28;20334;-66
2023/09/19 00:25:15;;;;;;;;;;;20.90;72.70;;;;;;5096873;28;19926;-66
2023/09/19 00:27:42;;;;;;;;;;;20.90;72.70;;;;;;5115136;28;20333;-66
2023/09/19 00:30:12;;;;;;;;;;;20.90;72.70;;;;;;5097218;28;20328;-66
2023/09/19 00:32:38;;;;;;;;;;;20.90;72.70;;;;;;5114860;28;19942;-67
2023/09/19 00:35:04;;;;;;;;;;;20.90;72.70;;;;;;5096960;28;19920;-66
2023/09/19 00:37:30;;;;;;;;;;;20.90;72.70;;;;;;5096528;28;20397;-66
2023/09/19 00:39:55;;;;;;;;;;;20.80;72.60;;;;;;5114633;28;19963;-67
2023/09/19 00:42:22;;;;;;;;;;;20.90;72.60;;;;;;5096513;28;19924;-66
2023/09/19 00:44:51;;;;;;;;;;;20.90;72.60;;;;;;5114774;28;19924;-67
2023/09/19 00:47:17;;;;;;;;;;;20.80;72.50;;;;;;5096719;28;19920;-67
2023/09/19 00:49:44;;;;;;;;;;;20.90;72.50;;;;;;5114529;28;19924;-66
2023/09/19 00:52:10;;;;;;;;;;;20.80;72.60;;;;;;5114598;28;20488;-67
2023/09/19 00:54:36;;;;;;;;;;;20.90;72.40;;;;;;5096558;28;20375;-67
2023/09/19 00:57:02;;;;;;;;;;;20.90;72.40;;;;;;5096600;28;19919;-73
2023/09/19 00:59:27;;;;;;;;;;;20.90;72.40;;;;;;5114280;28;19924;-66
2023/09/19 01:01:54;;;;;;;;;;;20.80;72.40;;;;;;5096504;28;19927;-66
2023/09/19 01:04:20;;;;;;;;;;;20.80;72.40;;;;;;5113216;28;20290;-67
2023/09/19 01:06:45;;;;;;;;;;;20.80;72.40;;;;;;5114778;28;19919;-66
2023/09/19 01:09:11;;;;;;;;;;;20.80;72.30;;;;;;5114560;28;20406;-67
2023/09/19 01:11:42;;;;;;;;;;;20.80;72.40;;;;;;5096346;28;19950;-67
2023/09/19 01:14:16;;;;;;;;;;;20.80;72.40;;;;;;5095896;28;20035;-67
2023/09/19 01:16:50;;;;;;;;;;;20.80;72.40;;;;;;5114092;28;20030;-67
2023/09/19 01:19:35;;;;;;;;;;;20.80;72.40;;;;;;5114369;28;20268;-67
2023/09/19 01:22:07;;;;;;;;;;;20.70;72.30;;;;;;5095943;28;19954;-67
2023/09/19 01:24:52;;;;;;;;;;;20.70;72.30;;;;;;5114360;28;20275;-67
2023/09/19 01:27:33;;;;;;;;;;;20.70;72.30;;;;;;5113645;28;19920;-67
2023/09/19 01:30:07;;;;;;;;;;;20.70;72.30;;;;;;5113779;28;20046;-66
2023/09/19 01:32:33;;;;;;;;;;;20.70;72.30;;;;;;5113947;28;19926;-66
2023/09/19 01:35:04;;;;;;;;;;;20.70;72.30;;;;;;5095813;28;20295;-66
2023/09/19 01:37:31;;;;;;;;;;;20.70;72.30;;;;;;5113718;28;19970;-66
2023/09/19 01:40:11;;;;;;;;;;;20.70;72.30;;;;;;5095102;28;19923;-67
2023/09/19 01:42:41;;;;;;;;;;;20.70;72.30;;;;;;5095366;28;19941;-67
2023/09/19 01:45:11;;;;;;;;;;;20.70;72.30;;;;;;5113558;28;19927;-67
2023/09/19 01:47:55;;;;;;;;;;;20.70;72.30;;;;;;5113632;28;19920;-67
2023/09/19 01:50:29;;;;;;;;;;;20.60;72.20;;;;;;5095095;28;19931;-67
2023/09/19 01:52:57;;;;;;;;;;;20.60;72.20;;;;;;5129574;27;19927;-67
2023/09/19 01:55:26;;;;;;;;;;;20.70;72.20;;;;;;5113465;28;19920;-67
2023/09/19 01:58:08;;;;;;;;;;;20.60;72.20;;;;;;5095145;28;19919;-67
2023/09/19 02:00:36;;;;;;;;;;;20.60;72.20;;;;;;5113198;28;19931;-67
2023/09/19 02:03:02;;;;;;;;;;;20.60;72.20;;;;;;5113144;28;20381;-67
2023/09/19 02:05:28;;;;;;;;;;;20.60;72.20;;;;;;5129356;27;19920;-67
2023/09/19 02:07:54;;;;;;;;;;;20.60;72.10;;;;;;5095023;28;19926;-67
2023/09/19 02:10:20;;;;;;;;;;;20.60;72.10;;;;;;5113139;28;19963;-73
2023/09/19 02:12:45;;;;;;;;;;;20.60;72.10;;;;;;5113093;28;19974;-67
2023/09/19 02:15:11;;;;;;;;;;;20.60;72.10;;;;;;5095005;28;19930;-67
2023/09/19 02:17:37;;;;;;;;;;;20.60;72.10;;;;;;5112896;28;19919;-67
2023/09/19 02:20:10;;;;;;;;;;;20.50;72.00;;;;;;5112878;28;19969;-67
2023/09/19 02:22:36;;;;;;;;;;;20.50;72.00;;;;;;5095060;28;20328;-66
2023/09/19 02:25:05;;;;;;;;;;;20.60;72.00;;;;;;5094726;28;19919;-66
2023/09/19 02:27:30;;;;;;;;;;;20.50;72.00;;;;;;5094926;28;19921;-66
2023/09/19 02:29:56;;;;;;;;;;;20.50;72.00;;;;;;5094769;28;20099;-67
2023/09/19 02:32:22;;;;;;;;;;;20.50;72.00;;;;;;5112795;28;19964;-66
2023/09/19 02:34:48;;;;;;;;;;;20.50;71.90;;;;;;5094846;28;19920;-67
2023/09/19 02:37:16;;;;;;;;;;;20.50;71.90;;;;;;5094814;28;19926;-66
2023/09/19 02:39:41;;;;;;;;;;;20.50;72.00;;;;;;5094395;28;19953;-67
2023/09/19 02:42:07;;;;;;;;;;;20.50;71.90;;;;;;5112682;28;20439;-67
2023/09/19 02:44:33;;;;;;;;;;;20.50;71.90;;;;;;5094758;28;20011;-67
2023/09/19 02:46:59;;;;;;;;;;;20.50;71.90;;;;;;5094401;28;19955;-66
2023/09/19 02:49:25;;;;;;;;;;;20.50;71.90;;;;;;5112718;28;19966;-67
2023/09/19 02:51:50;;;;;;;;;;;20.40;71.80;;;;;;5094686;28;20352;-67
2023/09/19 02:54:17;;;;;;;;;;;20.50;71.90;;;;;;5112866;28;20386;-67
2023/09/19 02:56:43;;;;;;;;;;;20.40;71.80;;;;;;5112828;28;20018;-66
2023/09/19 02:59:10;;;;;;;;;;;20.40;71.70;;;;;;5094563;28;20024;-66
2023/09/19 03:01:37;;;;;;;;;;;20.40;71.80;;;;;;5094605;28;19927;-67
2023/09/19 03:04:02;;;;;;;;;;;20.40;71.70;;;;;;5094458;28;20007;-67
2023/09/19 03:06:30;;;;;;;;;;;20.40;71.70;;;;;;5094385;28;20327;-67
2023/09/19 03:08:56;;;;;;;;;;;20.40;71.70;;;;;;5094605;28;19919;-66
2023/09/19 03:11:22;;;;;;;;;;;20.40;71.70;;;;;;5112632;28;20379;-67
2023/09/19 03:13:52;;;;;;;;;;;20.50;71.80;;;;;;5112538;28;19988;-67
2023/09/19 03:16:18;;;;;;;;;;;20.70;71.40;;;;;;5094397;28;20310;-67
2023/09/19 03:18:44;;;;;;;;;;;21.00;70.70;;;;;;5112307;28;19920;-68
2023/09/19 03:21:10;;;;;;;;;;;21.20;69.90;;;;;;5112374;28;20347;-67
2023/09/19 03:23:36;;;;;;;;;;;21.40;69.20;;;;;;5094092;28;19966;-71
2023/09/19 03:26:01;;;;;;;;;;;21.50;68.50;;;;;;5094882;28;20019;-69
2023/09/19 03:28:27;;;;;;;;;;;21.70;68.00;;;;;;5116158;28;19926;-69
2023/09/19 03:31:08;;;;;;;;;;;21.80;67.60;;;;;;5098337;28;20282;-68
2023/09/19 03:33:34;;;;;;;;;;;21.80;68.10;;;;;;5116162;28;19920;-68
2023/09/19 03:36:00;;;;;;;;;;;21.80;67.10;;;;;;5116324;28;20375;-69
2023/09/19 03:38:26;;;;;;;;;;;21.80;66.80;;;;;;5116006;28;19920;-69
2023/09/19 03:40:52;;;;;;;;;;;21.90;66.80;;;;;;5097558;28;19963;-68
2023/09/19 03:43:19;;;;;;;;;;;21.90;66.60;;;;;;5097703;28;19963;-68
2023/09/19 03:45:46;;;;;;;;;;;21.90;66.60;;;;;;5115920;28;19943;-68
2023/09/19 03:48:12;;;;;;;;;;;21.90;66.50;;;;;;5098022;28;19924;-69
2023/09/19 03:50:37;;;;;;;;;;;21.80;66.50;;;;;;5097823;28;19926;-69
2023/09/19 03:53:03;;;;;;;;;;;21.80;66.60;;;;;;5097811;28;19973;-68
2023/09/19 03:55:30;;;;;;;;;;;21.80;67.40;;;;;;5097716;28;19920;-69
2023/09/19 03:57:56;;;;;;;;;;;21.70;66.80;;;;;;5097497;28;19926;-75
2023/09/19 04:00:24;;;;;;;;;;;21.60;66.80;;;;;;5131577;27;19946;-69
2023/09/19 04:02:51;;;;;;;;;;;21.50;67.00;;;;;;5097534;28;20286;-69
2023/09/19 04:05:16;;;;;;;;;;;21.50;67.20;;;;;;5131402;27;19926;-69
2023/09/19 04:07:42;;;;;;;;;;;21.40;67.40;;;;;;5097614;28;19919;-69
2023/09/19 04:10:09;;;;;;;;;;;21.30;67.50;;;;;;5115510;28;19920;-69
2023/09/19 04:12:34;;;;;;;;;;;21.20;67.70;;;;;;5115431;28;19927;-69
2023/09/19 04:15:00;;;;;;;;;;;21.20;68.60;;;;;;5097302;28;19920;-69
2023/09/19 04:17:25;;;;;;;;;;;21.10;68.00;;;;;;5097168;28;20405;-76
2023/09/19 04:19:51;;;;;;;;;;;21.10;68.20;;;;;;5097157;28;19930;-69
2023/09/19 04:22:16;;;;;;;;;;;21.00;68.30;;;;;;5096991;28;19927;-69
2023/09/19 04:24:42;;;;;;;;;;;21.00;68.40;;;;;;5115265;28;19927;-69
2023/09/19 04:27:09;;;;;;;;;;;20.90;68.50;;;;;;5115271;28;19920;-69
2023/09/19 04:29:35;;;;;;;;;;;20.90;68.60;;;;;;5115572;28;20259;-68
2023/09/19 04:32:00;;;;;;;;;;;20.90;68.70;;;;;;5097083;28;19931;-69
2023/09/19 04:34:26;;;;;;;;;;;20.80;68.70;;;;;;5114954;28;20015;-69
2023/09/19 04:36:52;;;;;;;;;;;20.80;68.70;;;;;;5096441;28;20007;-68
2023/09/19 04:39:18;;;;;;;;;;;20.80;68.80;;;;;;5114794;28;20333;-69
2023/09/19 04:41:44;;;;;;;;;;;20.80;68.80;;;;;;5096812;28;19924;-73
2023/09/19 04:44:10;;;;;;;;;;;20.80;69.50;;;;;;5096846;28;19920;-69
2023/09/19 04:46:36;;;;;;;;;;;20.80;68.70;;;;;;5096464;28;20409;-74
2023/09/19 04:49:02;;;;;;;;;;;20.80;68.70;;;;;;5096688;28;19946;-69
2023/09/19 04:51:32;;;;;;;;;;;20.90;68.60;;;;;;5096915;28;19927;-69
2023/09/19 04:53:58;;;;;;;;;;;20.90;68.50;;;;;;5096423;28;19971;-68
2023/09/19 04:56:24;;;;;;;;;;;21.00;68.30;;;;;;5114788;28;20014;-69
2023/09/19 04:58:49;;;;;;;;;;;21.10;68.10;;;;;;5114573;28;19920;-69
2023/09/19 05:01:16;;;;;;;;;;;21.10;67.80;;;;;;5114292;28;19920;-73
2023/09/19 05:03:42;;;;;;;;;;;21.20;67.60;;;;;;5114341;28;19950;-69
2023/09/19 05:06:07;;;;;;;;;;;21.20;67.40;;;;;;5096336;28;20371;-73
2023/09/19 05:08:33;;;;;;;;;;;21.20;67.20;;;;;;5114470;28;19927;-69
2023/09/19 05:11:01;;;;;;;;;;;21.30;67.10;;;;;;5096356;28;19920;-69
2023/09/19 05:13:27;;;;;;;;;;;21.30;67.00;;;;;;5096367;28;20118;-69
2023/09/19 05:15:52;;;;;;;;;;;21.30;66.80;;;;;;5095915;28;20117;-69
2023/09/19 05:18:18;;;;;;;;;;;21.30;66.60;;;;;;5095971;28;19969;-75
2023/09/19 05:20:43;;;;;;;;;;;21.30;66.50;;;;;;5095711;28;19973;-69
2023/09/19 05:23:11;;;;;;;;;;;21.30;66.50;;;;;;5096048;28;20324;-68
2023/09/19 05:25:37;;;;;;;;;;;21.40;66.40;;;;;;5094711;28;20018;-69
2023/09/19 05:28:05;;;;;;;;;;;21.30;66.40;;;;;;5095923;28;19919;-75
2023/09/19 05:30:31;;;;;;;;;;;21.30;66.30;;;;;;5095635;28;20019;-69
2023/09/19 05:32:57;;;;;;;;;;;21.20;66.00;;;;;;5088728;27;20339;-68
2023/09/19 05:35:23;;;;;;;;;;;21.20;65.80;;;;;;5089338;28;19959;-69
2023/09/19 05:37:51;;;;;;;;;;;21.00;65.40;;;;;;5111604;28;20220;-74
2023/09/19 05:40:18;;;;;;;;;;;21.00;65.50;;;;;;5109771;28;19947;-71
2023/09/19 05:42:43;;;;;;;;;;;20.90;65.30;;;;;;5092615;28;19983;-68
2023/09/19 05:45:12;;;;;;;;;;;20.90;65.10;;;;;;5109018;28;19920;-71
2023/09/19 05:47:38;;;;;;;;;;;20.80;64.90;;;;;;5088943;27;20461;-69
2023/09/19 05:50:05;;;;;;;;;;;20.80;64.90;;;;;;5103746;27;19920;-68
2023/09/19 05:52:30;;;;;;;;;;;20.70;64.70;;;;;;5088705;28;19959;-69
2023/09/19 05:54:56;;;;;;;;;;;20.70;64.60;;;;;;5088229;28;20374;-69
2023/09/19 05:57:22;;;;;;;;;;;20.70;64.50;;;;;;5086827;28;19924;-68
2023/09/19 05:59:49;;;;;;;;;;;20.70;64.40;;;;;;5087943;28;20005;-66
2023/09/19 06:02:15;;;;;;;;;;;20.70;64.10;;;;;;5086717;28;19931;-72
2023/09/19 06:04:40;;;;;;;;;;;20.70;63.90;;;;;;5106268;28;19923;-72
2023/09/19 06:07:06;;;;;;;;;;;20.70;63.60;;;;;;5084661;28;20022;-68
2023/09/19 06:09:32;;;;;;;;;;;20.70;63.50;;;;;;5093441;28;19946;-75
2023/09/19 06:11:57;;;;;;;;;;;20.70;63.30;;;;;;5107093;27;19973;-71
2023/09/19 06:14:24;;;;;;;;;;;20.80;63.30;;;;;;5075255;28;20622;-73
2023/09/19 06:16:50;;;;;;;;;;;20.80;63.00;;;;;;5078827;28;19934;-68
2023/09/19 06:19:15;;;;;;;;;;;21.00;62.80;;;;;;5104127;28;19919;-68
2023/09/19 06:21:41;;;;;;;;;;;21.10;62.50;;;;;;5088952;27;20031;-75
2023/09/19 06:24:06;;;;;;;;;;;21.20;62.30;;;;;;5094526;28;20333;-68
2023/09/19 06:26:32;;;;;;;;;;;21.30;62.00;;;;;;5099010;27;19949;-69
2023/09/19 06:28:58;;;;;;;;;;;21.30;61.80;;;;;;5080492;28;19928;-75
2023/09/19 06:31:26;;;;;;;;;;;21.40;61.70;;;;;;5084239;28;20633;-71
2023/09/19 06:33:52;;;;;;;;;;;21.40;61.70;;;;;;5078647;28;19928;-67
2023/09/19 06:36:17;;;;;;;;;;;21.40;61.70;;;;;;5078011;28;19985;-68
2023/09/19 06:38:42;;;;;;;;;;;21.40;61.80;;;;;;5087949;28;20020;-68
2023/09/19 06:41:08;;;;;;;;;;;21.30;61.80;;;;;;5094603;28;19928;-73
2023/09/19 06:43:34;;;;;;;;;;;21.30;61.90;;;;;;5082282;28;19920;-68
2023/09/19 06:46:00;;;;;;;;;;;21.30;61.90;;;;;;5091362;28;19931;-75
2023/09/19 06:48:26;;;;;;;;;;;21.20;61.90;;;;;;5078207;28;19920;-72
2023/09/19 06:50:53;;;;;;;;;;;21.20;62.00;;;;;;5078876;28;19966;-68
2023/09/19 06:53:18;;;;;;;;;;;21.20;62.20;;;;;;5078714;28;19973;-67
2023/09/19 06:55:45;;;;;;;;;;;21.20;62.40;;;;;;5107522;28;19928;-67
2023/09/19 06:58:10;;;;;;;;;;;21.20;62.70;;;;;;5094084;28;19924;-70
2023/09/19 07:00:37;;;;;;;;;;;21.20;62.90;;;;;;5108126;28;19939;-67
2023/09/19 07:03:11;;;;;;;;;;;21.20;63.10;;;;;;5080188;28;19930;-68
2023/09/19 07:05:38;;;;;;;;;;;21.20;63.40;;;;;;5103952;28;19924;-67
2023/09/19 07:08:05;;;;;;;;;;;21.20;63.50;;;;;;5081890;28;19926;-67
2023/09/19 07:10:32;;;;;;;;;;;21.20;64.40;;;;;;5080158;28;20176;-68
2023/09/19 07:12:58;;;;;;;;;;;21.20;63.80;;;;;;5080895;28;19932;-71
2023/09/19 07:15:24;;;;;;;;;;;21.10;63.90;;;;;;5082534;28;19996;-69
2023/09/19 07:17:50;;;;;;;;;;;21.10;64.10;;;;;;5079111;28;20298;-67
2023/09/19 07:20:16;;;;;;;;;;;21.20;64.20;;;;;;5113320;27;19924;-67
2023/09/19 07:22:41;;;;;;;;;;;21.10;64.20;;;;;;5113710;27;19928;-71
2023/09/19 07:25:07;;;;;;;;;;;21.10;64.40;;;;;;5080291;28;19973;-67
2023/09/19 07:27:33;;;;;;;;;;;21.10;64.50;;;;;;5078522;28;19924;-67
2023/09/19 07:29:59;;;;;;;;;;;21.10;64.50;;;;;;5084936;28;19950;-67
2023/09/19 07:32:24;;;;;;;;;;;21.10;64.60;;;;;;5103173;28;19920;-68
2023/09/19 07:34:50;;;;;;;;;;;21.10;64.70;;;;;;5081884;28;19966;-75
2023/09/19 07:37:16;;;;;;;;;;;21.10;64.70;;;;;;5100169;27;19920;-68
2023/09/19 07:39:41;;;;;;;;;;;21.10;65.60;;;;;;5094399;27;20050;-68
2023/09/19 07:42:07;;;;;;;;;;;21.10;64.90;;;;;;5098753;28;20713;-71
2023/09/19 07:44:34;;;;;;;;;;;21.00;64.80;;;;;;5097971;28;19924;-67
2023/09/19 07:47:03;;;;;;;;;;;21.10;64.80;;;;;;5111208;27;19966;-68
2023/09/19 07:49:28;;;;;;;;;;;21.00;64.80;;;;;;5075830;28;19944;-70
2023/09/19 07:51:54;;;;;;;;;;;21.00;64.80;;;;;;5082343;28;20259;-73
2023/09/19 07:54:21;;;;;;;;;;;21.00;64.80;;;;;;5084851;27;19927;-75
2023/09/19 07:56:46;;;;;;;;;;;21.00;64.90;;;;;;5077429;28;19924;-68
2023/09/19 07:59:13;;;;;;;;;;;21.00;65.00;;;;;;5085785;28;19920;-69
2023/09/19 08:01:39;;;;;;;;;;;21.00;65.00;;;;;;5099182;28;19931;-69
2023/09/19 08:04:05;;;;;;;;;;;21.00;65.10;;;;;;5097611;27;20011;-68
2023/09/19 08:06:31;;;;;;;;;;;21.00;65.10;;;;;;5111905;27;20011;-68
2023/09/19 08:08:57;;;;;;;;;;;21.10;65.10;;;;;;5110853;27;19919;-65
2023/09/19 08:11:24;;;;;;;;;;;21.00;65.00;;;;;;5086972;27;20345;-68
2023/09/19 08:13:50;;;;;;;;;;;21.10;65.00;;;;;;5077337;27;20405;-65
2023/09/19 08:16:17;;;;;;;;;;;21.00;65.00;;;;;;5099382;27;19924;-73
2023/09/19 08:18:46;;;;;;;;;;;21.00;65.00;;;;;;5075935;28;19928;-67
2023/09/19 08:21:15;;;;;;;;;;;21.10;65.10;;;;;;5096358;27;19934;-67
2023/09/19 08:23:41;;;;;;;;;;;21.10;65.00;;;;;;5077311;27;19927;-66
2023/09/19 08:26:07;;;;;;;;;;;21.10;65.00;;;;;;5079872;27;19963;-68
2023/09/19 08:28:34;;;;;;;;;;;21.10;64.90;;;;;;5076489;28;19955;-67
2023/09/19 08:31:02;;;;;;;;;;;21.10;64.90;;;;;;5079677;28;19927;-68
2023/09/19 08:33:27;;;;;;;;;;;21.10;64.90;;;;;;5099913;28;20075;-68
2023/09/19 08:35:55;;;;;;;;;;;21.10;65.00;;;;;;5098224;27;19920;-67
2023/09/19 08:38:21;;;;;;;;;;;21.00;65.00;;;;;;5080302;28;20407;-70
2023/09/19 08:40:46;;;;;;;;;;;21.00;65.10;;;;;;5079416;28;19939;-67
2023/09/19 08:43:12;;;;;;;;;;;21.00;65.20;;;;;;5079162;28;20011;-66
2023/09/19 08:45:39;;;;;;;;;;;21.00;65.20;;;;;;5094742;28;20343;-66
2023/09/19 08:48:25;;;;;;;;;;;21.00;65.20;;;;;;5077261;28;20375;-70
2023/09/19 08:51:10;;;;;;;;;;;21.00;65.30;;;;;;5076266;27;19935;-65
2023/09/19 08:53:42;;;;;;;;;;;21.00;65.40;;;;;;5076963;28;19930;-65
2023/09/19 08:56:09;;;;;;;;;;;21.00;65.40;;;;;;5110337;27;20395;-69
2023/09/19 08:58:44;;;;;;;;;;;20.90;65.40;;;;;;5079619;28;19924;-66
2023/09/19 09:01:10;;;;;;;;;;;20.90;65.40;;;;;;5095457;28;19935;-64
2023/09/19 09:03:37;;;;;;;;;;;21.00;65.50;;;;;;5096257;27;20286;-72
2023/09/19 09:06:03;;;;;;;;;;;21.00;65.60;;;;;;5074131;28;20482;-66
2023/09/19 09:08:30;;;;;;;;;;;21.00;65.60;;;;;;5097840;27;20306;-67
2023/09/19 09:10:57;;;;;;;;;;;21.00;65.60;;;;;;5097736;28;20010;-66
2023/09/19 09:13:26;;;;;;;;;;;21.00;65.60;;;;;;5078896;28;19920;-65
2023/09/19 09:15:51;;;;;;;;;;;21.00;65.60;;;;;;5075148;28;19928;-66
2023/09/19 09:18:17;;;;;;;;;;;21.00;65.60;;;;;;5078868;28;19985;-67
2023/09/19 09:20:44;;;;;;;;;;;21.00;65.60;;;;;;5076938;28;19935;-66
2023/09/19 09:23:10;;;;;;;;;;;21.10;65.60;;;;;;5076805;28;20279;-66
2023/09/19 09:28:31;;;;;;;;;;;21.10;65.70;;;;;;5082423;27;19922;-65
2023/09/19 09:30:58;;;;;;;;;;;21.10;65.70;;;;;;5111567;28;19920;-66
2023/09/19 09:33:24;;;;;;;;;;;21.10;66.40;;;;;;5084332;28;20027;-65
2023/09/19 09:35:52;;;;;;;;;;;21.10;65.70;;;;;;5079434;28;21123;-65
2023/09/19 09:38:18;;;;;;;;;;;21.10;65.60;;;;;;5078352;28;19924;-64
2023/09/19 09:40:47;;;;;;;;;;;21.10;65.60;;;;;;5072960;28;19929;-65
2023/09/19 09:43:29;;;;;;;;;;;21.10;65.50;;;;;;5100445;27;20597;-65
2023/09/19 09:46:42;;;;;;;;;;;21.10;65.40;;;;;;5073487;28;19931;-67
2023/09/19 09:51:35;;;;;;;;;;;21.10;65.10;;;;;;5081219;27;19920;-67
2023/09/19 09:54:17;;;;;;;;;;;21.10;65.10;;;;;;5074608;28;20519;-68
2023/09/19 09:56:59;;;;;;;;;;;21.10;65.30;;;;;;5070900;28;20590;-67
2023/09/19 09:59:49;;;;;;;;;;;21.20;65.40;;;;;;5056241;28;19927;-68
2023/09/19 10:02:23;;;;;;;;;;;21.20;65.50;;;;;;5051818;28;19927;-66
2023/09/19 10:04:58;;;;;;;;;;;21.20;65.70;;;;;;5048532;28;19920;-68
2023/09/19 10:07:26;;;;;;;;;;;21.20;65.60;;;;;;5051936;28;19931;-68
2023/09/19 10:09:52;;;;;;;;;;;21.20;66.40;;;;;;5056623;28;20024;-68
2023/09/19 10:12:18;;;;;;;;;;;21.20;65.60;;;;;;5067290;28;20558;-67
2023/09/19 10:14:47;;;;;;;;;;;21.20;65.50;;;;;;5065538;28;19921;-68
2023/09/19 10:17:15;;;;;;;;;;;21.20;65.50;;;;;;5062473;28;19927;-68
2023/09/19 10:19:46;;;;;;;;;;;21.10;65.40;;;;;;5052214;28;19924;-68
2023/09/19 10:22:14;;;;;;;;;;;21.10;65.40;;;;;;5051503;28;20017;-67
2023/09/19 10:24:41;;;;;;;;;;;21.20;65.40;;;;;;5063955;28;19927;-71
2023/09/19 10:27:10;;;;;;;;;;;21.20;65.30;;;;;;5053061;28;19924;-67
2023/09/19 10:29:39;;;;;;;;;;;21.20;65.40;;;;;;5034372;28;20027;-68
2023/09/19 10:32:05;;;;;;;;;;;21.20;65.40;;;;;;5065501;28;19944;-70
2023/09/19 10:34:35;;;;;;;;;;;21.20;65.40;;;;;;5050206;28;19921;-65
2023/09/19 10:37:05;;;;;;;;;;;21.30;65.40;;;;;;5057122;28;20517;-66
2023/09/19 10:39:32;;;;;;;;;;;21.30;65.30;;;;;;5063854;28;19924;-68
2023/09/19 10:42:02;;;;;;;;;;;21.30;65.30;;;;;;5041605;28;19935;-66
2023/09/19 10:44:31;;;;;;;;;;;21.30;65.40;;;;;;5044349;28;19921;-71
2023/09/19 10:46:57;;;;;;;;;;;21.30;65.40;;;;;;5047776;28;19932;-67
2023/09/19 10:49:24;;;;;;;;;;;21.30;65.30;;;;;;5048185;28;19951;-67
2023/09/19 10:51:54;;;;;;;;;;;21.30;65.40;;;;;;5048635;28;20014;-68
2023/09/19 10:54:23;;;;;;;;;;;21.40;65.30;;;;;;5066369;28;20089;-70
2023/09/19 10:56:51;;;;;;;;;;;21.40;65.20;;;;;;5053656;28;19986;-74
2023/09/19 10:59:18;;;;;;;;;;;21.40;65.00;;;;;;5048677;28;20087;-69
2023/09/19 11:01:47;;;;;;;;;;;21.40;65.00;;;;;;5058558;28;19925;-66
2023/09/19 11:07:11;;;;;;;;;;;21.40;65.10;;;;;;5086976;27;19927;-67
2023/09/19 11:09:45;;;;;;;;;;;21.40;65.10;;;;;;5067279;28;19937;-68
2023/09/19 11:12:12;;;;;;;;;;;21.40;65.10;;;;;;5072299;28;19928;-68
2023/09/19 11:14:38;;;;;;;;;;;21.40;65.10;;;;;;5069697;28;19931;-73
2023/09/19 11:30:49;;;;;;;;;;;21.50;65.10;;;;;;5087919;27;19942;-67
2023/09/19 11:36:00;;;;;;;;;;;21.50;65.10;;;;;;5072797;27;19945;-67
2023/09/19 11:38:45;;;;;;;;;;;21.50;65.10;;;;;;5070965;28;19931;-67
2023/09/19 11:49:31;;;;;;;;;;;21.50;65.00;;;;;;5089806;27;19949;-69
2023/09/19 11:52:00;;;;;;;;;;;21.50;65.00;;;;;;5069485;28;19986;-71
2023/09/19 11:54:28;;;;;;;;;;;21.50;65.00;;;;;;5074924;28;19928;-67
2023/09/19 11:56:54;;;;;;;;;;;21.50;64.90;;;;;;5077735;28;20386;-67
2023/09/19 11:59:24;;;;;;;;;;;21.50;64.80;;;;;;5075912;28;19921;-68
2023/09/19 12:01:56;;;;;;;;;;;21.50;64.80;;;;;;5078926;28;19931;-70
2023/09/19 12:04:32;;;;;;;;;;;21.50;64.90;;;;;;5077604;28;19954;-69
2023/09/19 12:06:58;;;;;;;;;;;21.50;65.00;;;;;;5071893;28;20021;-69
2023/09/19 12:09:24;;;;;;;;;;;21.50;65.10;;;;;;5076913;28;20017;-67
2023/09/19 12:11:51;;;;;;;;;;;21.60;65.40;;;;;;5109086;28;19924;-68
2023/09/19 12:14:26;;;;;;;;;;;21.60;65.50;;;;;;5067973;28;20371;-67
2023/09/19 12:16:55;;;;;;;;;;;21.60;65.60;;;;;;5074246;28;20638;-68
2023/09/19 12:19:21;;;;;;;;;;;21.60;65.70;;;;;;5078417;28;20269;-68
2023/09/19 12:21:57;;;;;;;;;;;21.60;65.70;;;;;;5081807;28;19924;-69
2023/09/19 12:24:26;;;;;;;;;;;21.60;65.70;;;;;;5075533;28;19928;-70
2023/09/19 12:26:52;;;;;;;;;;;21.60;65.50;;;;;;5077877;28;19973;-70
2023/09/19 12:29:19;;;;;;;;;;;21.60;66.40;;;;;;5077792;28;19932;-73
2023/09/19 12:31:50;;;;;;;;;;;21.60;65.60;;;;;;5107785;28;20368;-70
2023/09/19 12:34:19;;;;;;;;;;;21.60;65.50;;;;;;5078902;28;19924;-70
2023/09/19 12:36:45;;;;;;;;;;;21.60;65.40;;;;;;5105769;27;19999;-69
2023/09/19 12:39:10;;;;;;;;;;;21.60;65.30;;;;;;5069838;28;20019;-70
2023/09/19 12:41:37;;;;;;;;;;;21.60;65.30;;;;;;5109252;28;19999;-70
2023/09/19 12:44:08;;;;;;;;;;;21.60;65.30;;;;;;5079655;28;20058;-69
2023/09/19 12:46:34;;;;;;;;;;;21.50;65.20;;;;;;5074895;28;19924;-67
2023/09/19 12:49:19;;;;;;;;;;;21.50;65.30;;;;;;5074619;28;20582;-68
2023/09/19 12:51:47;;;;;;;;;;;21.60;65.20;;;;;;5072476;28;20961;-67
2023/09/19 12:54:14;;;;;;;;;;;21.60;65.20;;;;;;5105376;28;19928;-73
2023/09/19 12:56:44;;;;;;;;;;;21.60;65.40;;;;;;5076840;28;20560;-66
2023/09/19 12:59:13;;;;;;;;;;;21.60;65.50;;;;;;5053939;28;19925;-69
2023/09/19 13:01:53;;;;;;;;;;;21.70;65.70;;;;;;5091058;28;20012;-69
2023/09/19 13:04:30;;;;;;;;;;;21.70;65.80;;;;;;5067652;28;20280;-70
2023/09/19 13:07:00;;;;;;;;;;;21.70;65.90;;;;;;5073655;28;19950;-70
2023/09/19 13:09:34;;;;;;;;;;;21.70;66.00;;;;;;5069649;28;19924;-70
2023/09/19 13:12:02;;;;;;;;;;;21.70;65.90;;;;;;5068132;28;19936;-69
2023/09/19 13:14:31;;;;;;;;;;;21.70;65.90;;;;;;5069877;28;19973;-70
2023/09/19 13:17:06;;;;;;;;;;;21.60;65.80;;;;;;5083336;28;19948;-71
2023/09/19 13:19:40;;;;;;;;;;;21.60;65.80;;;;;;5069194;28;20041;-70
2023/09/19 13:22:26;;;;;;;;;;;21.60;65.80;;;;;;5083987;28;19925;-71
2023/09/19 13:24:51;;;;;;;;;;;21.60;65.70;;;;;;5060099;28;19928;-73
2023/09/19 13:27:17;;;;;;;;;;;21.50;65.60;;;;;;5045204;28;19982;-73
2023/09/19 13:29:42;;;;;;;;;;;21.50;65.70;;;;;;5049576;28;20381;-73
2023/09/19 13:32:11;;;;;;;;;;;21.50;65.60;;;;;;5059172;28;19985;-73
2023/09/19 13:34:37;;;;;;;;;;;21.50;65.60;;;;;;5067932;28;19927;-73
2023/09/19 13:37:04;;;;;;;;;;;21.50;65.60;;;;;;5074008;28;19956;-73
2023/09/19 13:39:30;;;;;;;;;;;21.50;65.60;;;;;;5066632;28;19962;-73
2023/09/19 13:41:55;;;;;;;;;;;21.40;65.60;;;;;;5072780;28;19982;-72
2023/09/19 13:44:21;;;;;;;;;;;21.40;65.50;;;;;;5066291;28;19927;-68
2023/09/19 13:46:46;;;;;;;;;;;21.40;65.50;;;;;;5068427;28;19960;-73
2023/09/19 13:49:12;;;;;;;;;;;21.40;65.40;;;;;;5069048;28;19936;-72
2023/09/19 13:51:37;;;;;;;;;;;21.40;65.40;;;;;;5071897;28;19924;-74
2023/09/19 13:54:03;;;;;;;;;;;21.40;65.30;;;;;;5061811;28;19921;-73
2023/09/19 13:56:30;;;;;;;;;;;21.40;65.40;;;;;;5067921;28;20358;-69
2023/09/19 13:58:56;;;;;;;;;;;21.40;65.30;;;;;;5065337;28;20453;-70
2023/09/19 14:01:22;;;;;;;;;;;21.40;65.30;;;;;;5057101;28;19932;-71
2023/09/19 14:03:49;;;;;;;;;;;21.40;65.40;;;;;;5060136;28;20585;-73
2023/09/19 14:06:16;;;;;;;;;;;21.40;65.30;;;;;;5060281;28;19928;-74
2023/09/19 14:08:42;;;;;;;;;;;21.40;65.30;;;;;;5061983;28;19925;-73
2023/09/19 14:11:08;;;;;;;;;;;21.50;65.30;;;;;;5063655;28;19920;-69
2023/09/19 14:13:33;;;;;;;;;;;21.50;65.30;;;;;;5061832;28;19944;-69
2023/09/19 14:16:05;;;;;;;;;;;21.50;65.40;;;;;;5085232;28;20031;-69
2023/09/19 14:18:31;;;;;;;;;;;21.40;65.30;;;;;;5085815;28;20023;-69
2023/09/19 14:20:57;;;;;;;;;;;21.40;65.30;;;;;;5065843;28;20447;-68
2023/09/19 14:23:23;;;;;;;;;;;21.40;65.30;;;;;;5075812;28;20626;-69
2023/09/19 14:25:49;;;;;;;;;;;21.40;65.30;;;;;;5068843;28;19924;-68
2023/09/19 14:28:14;;;;;;;;;;;21.40;65.40;;;;;;5072008;28;20379;-69
2023/09/19 14:30:39;;;;;;;;;;;21.30;65.30;;;;;;5072464;28;20016;-68
2023/09/19 14:33:06;;;;;;;;;;;21.30;65.40;;;;;;5067258;28;19936;-74
2023/09/19 14:35:31;;;;;;;;;;;21.30;65.50;;;;;;5087573;28;19925;-68
2023/09/19 14:37:57;;;;;;;;;;;21.30;65.50;;;;;;5059671;28;19928;-68
2023/09/19 14:40:22;;;;;;;;;;;21.30;65.50;;;;;;5085088;28;19930;-68
2023/09/19 14:42:48;;;;;;;;;;;21.30;65.60;;;;;;5065740;28;19920;-68
2023/09/19 14:45:17;;;;;;;;;;;21.30;65.60;;;;;;5069934;28;19920;-74
2023/09/19 14:47:43;;;;;;;;;;;21.30;65.60;;;;;;5085023;28;20032;-68
2023/09/19 14:50:09;;;;;;;;;;;21.20;65.60;;;;;;5077161;28;20335;-69
2023/09/19 14:52:36;;;;;;;;;;;21.20;65.60;;;;;;5066608;28;19935;-69